Time,TemperatureF,DewpointF,PressureIn,WindDirection,WindDirectionDegrees,WindSpeedMPH,WindSpeedGustMPH,Humidity,HourlyPrecipIn,Conditions,Clouds,dailyrainin,SoftwareType,DateUTC
2013-03-23 00:00:00,24.5,13.7,30.06,NNW,338,0.0,0.0,63,0.00,,,0.00,WUHU216HW,2013-03-23 05:00:00,
2013-03-23 00:05:00,24.5,13.7,30.06,NNW,338,0.0,0.0,63,0.00,,,0.00,WUHU216HW,2013-03-23 05:05:00,
2013-03-23 00:06:00,24.5,13.7,30.06,NNW,338,0.0,0.0,63,0.00,,,0.00,WUHU216HW,2013-03-23 05:06:00,
2013-03-23 00:10:00,24.5,13.7,30.06,NNW,338,0.0,0.0,63,0.00,,,0.00,WUHU216HW,2013-03-23 05:10:00,
2013-03-23 00:30:00,24.1,14.0,30.06,SW,225,0.7,0.7,65,0.00,,,0.00,WUHU216HW,2013-03-23 05:30:00,
2013-03-23 00:32:00,24.1,14.0,30.06,SW,225,0.9,0.9,65,0.00,,,0.00,WUHU216HW,2013-03-23 05:32:00,
2013-03-23 00:35:00,24.1,14.0,30.06,SW,225,0.9,0.9,65,0.00,,,0.00,WUHU216HW,2013-03-23 05:35:00,
2013-03-23 00:36:00,24.1,14.0,30.06,SW,225,0.9,0.9,65,0.00,,,0.00,WUHU216HW,2013-03-23 05:36:00,
2013-03-23 00:37:00,24.1,14.0,30.06,SW,225,0.9,0.9,65,0.00,,,0.00,WUHU216HW,2013-03-23 05:37:00,
2013-03-23 00:40:00,24.1,14.0,30.06,SW,225,0.9,0.9,65,0.00,,,0.00,WUHU216HW,2013-03-23 05:40:00,
2013-03-23 01:00:00,22.5,13.1,30.05,SE,135,1.1,1.1,67,0.00,,,0.00,WUHU216HW,2013-03-23 06:00:00,
2013-03-23 01:05:00,22.5,13.1,30.05,SE,135,0.9,1.1,67,0.00,,,0.00,WUHU216HW,2013-03-23 06:05:00,
2013-03-23 01:10:00,22.5,13.1,30.05,SE,135,0.9,0.9,67,0.00,,,0.00,WUHU216HW,2013-03-23 06:10:00,
2013-03-23 01:30:00,21.2,13.0,30.06,SSW,203,5.1,5.1,70,0.00,,,0.00,WUHU216HW,2013-03-23 06:30:00,
2013-03-23 01:35:00,21.1,12.8,30.06,SSW,203,5.4,5.4,70,0.00,,,0.00,WUHU216HW,2013-03-23 06:35:00,
2013-03-23 01:36:00,21.1,12.8,30.06,SSW,203,5.4,5.4,70,0.00,,,0.00,WUHU216HW,2013-03-23 06:36:00,
2013-03-23 01:40:00,21.1,12.8,30.06,SSW,203,5.4,5.4,70,0.00,,,0.00,WUHU216HW,2013-03-23 06:40:00,
2013-03-23 02:00:00,21.8,13.5,30.04,South,180,0.2,0.2,70,0.00,,,0.00,WUHU216HW,2013-03-23 07:00:00,
2013-03-23 02:05:00,21.8,13.5,30.04,South,180,0.2,0.2,70,0.00,,,0.00,WUHU216HW,2013-03-23 07:05:00,
2013-03-23 02:10:00,21.8,13.5,30.04,South,180,0.2,0.2,70,0.00,,,0.00,WUHU216HW,2013-03-23 07:10:00,
2013-03-23 02:30:00,21.6,13.3,30.04,SW,225,0.0,0.0,70,0.00,,,0.00,WUHU216HW,2013-03-23 07:30:00,
2013-03-23 02:35:00,21.6,13.3,30.04,SW,225,0.0,0.0,70,0.00,,,0.00,WUHU216HW,2013-03-23 07:35:00,
2013-03-23 02:40:00,21.6,13.3,30.04,SW,225,0.0,0.0,70,0.00,,,0.00,WUHU216HW,2013-03-23 07:40:00,
2013-03-23 03:00:00,20.5,12.2,30.04,South,180,0.0,0.0,70,0.00,,,0.00,WUHU216HW,2013-03-23 08:00:00,
2013-03-23 03:05:00,20.5,12.2,30.04,South,180,0.0,0.0,70,0.00,,,0.00,WUHU216HW,2013-03-23 08:05:00,
2013-03-23 03:10:00,20.5,12.2,30.04,South,180,0.0,0.0,70,0.00,,,0.00,WUHU216HW,2013-03-23 08:10:00,
2013-03-23 03:30:00,20.0,12.6,30.03,East,90,0.0,0.0,73,0.00,,,0.00,WUHU216HW,2013-03-23 08:30:00,
2013-03-23 03:31:00,20.0,12.3,30.03,East,90,0.0,0.0,72,0.00,,,0.00,WUHU216HW,2013-03-23 08:31:00,
2013-03-23 03:35:00,20.0,12.3,30.03,East,90,0.0,0.0,72,0.00,,,0.00,WUHU216HW,2013-03-23 08:35:00,
2013-03-23 03:37:00,20.0,12.3,30.03,East,90,0.0,0.0,72,0.00,,,0.00,WUHU216HW,2013-03-23 08:37:00,
2013-03-23 03:40:00,20.0,12.3,30.03,East,90,0.0,0.0,72,0.00,,,0.00,WUHU216HW,2013-03-23 08:40:00,
2013-03-23 04:00:00,17.8,11.2,30.04,SW,225,1.3,1.3,75,0.00,,,0.00,WUHU216HW,2013-03-23 09:00:00,
2013-03-23 04:05:00,17.8,11.4,30.04,SW,225,1.8,1.8,76,0.00,,,0.00,WUHU216HW,2013-03-23 09:05:00,
2013-03-23 04:10:00,17.8,11.4,30.04,SW,225,1.8,1.8,76,0.00,,,0.00,WUHU216HW,2013-03-23 09:10:00,
2013-03-23 04:30:00,20.0,13.0,30.07,WSW,248,2.5,2.5,74,0.00,,,0.00,WUHU216HW,2013-03-23 09:30:00,
2013-03-23 04:35:00,20.0,13.0,30.07,SW,225,2.2,2.5,74,0.00,,,0.00,WUHU216HW,2013-03-23 09:35:00,
2013-03-23 05:00:00,21.2,13.6,30.08,West,270,3.1,3.1,72,0.00,,,0.00,WUHU216HW,2013-03-23 10:00:00,
2013-03-23 05:05:00,21.2,13.6,30.08,West,270,4.3,4.3,72,0.00,,,0.00,WUHU216HW,2013-03-23 10:05:00,
2013-03-23 05:10:00,21.2,13.6,30.08,West,270,4.3,4.3,72,0.00,,,0.00,WUHU216HW,2013-03-23 10:10:00,
2013-03-23 05:30:00,22.0,13.7,30.08,NW,315,2.2,2.2,70,0.00,,,0.00,WUHU216HW,2013-03-23 10:30:00,
2013-03-23 05:35:00,22.0,13.7,30.08,NW,315,2.2,2.2,70,0.00,,,0.00,WUHU216HW,2013-03-23 10:35:00,
2013-03-23 06:00:00,21.4,13.4,30.09,WNW,293,0.0,0.0,71,0.00,,,0.00,WUHU216HW,2013-03-23 11:00:00,
2013-03-23 06:05:00,21.4,13.4,30.09,WNW,293,0.0,0.0,71,0.00,,,0.00,WUHU216HW,2013-03-23 11:05:00,
2013-03-23 06:10:00,21.4,13.4,30.09,WNW,293,0.0,0.0,71,0.00,,,0.00,WUHU216HW,2013-03-23 11:10:00,
2013-03-23 06:30:00,21.2,13.6,30.09,SSW,203,1.1,1.1,72,0.00,,,0.00,WUHU216HW,2013-03-23 11:30:00,
2013-03-23 06:31:00,21.2,13.6,30.09,SSW,203,0.8,1.1,72,0.00,,,0.00,WUHU216HW,2013-03-23 11:31:00,
2013-03-23 06:35:00,21.2,13.6,30.09,SSW,203,0.2,1.1,72,0.00,,,0.00,WUHU216HW,2013-03-23 11:35:00,
2013-03-23 06:36:00,21.2,13.6,30.09,SSW,203,0.2,1.1,72,0.00,,,0.00,WUHU216HW,2013-03-23 11:36:00,
2013-03-23 06:40:00,21.2,13.6,30.09,SSW,203,0.2,0.2,72,0.00,,,0.00,WUHU216HW,2013-03-23 11:40:00,
2013-03-23 07:00:00,20.5,12.9,30.09,SW,225,0.4,0.4,72,0.00,,,0.00,WUHU216HW,2013-03-23 12:00:00,
2013-03-23 07:05:00,20.5,12.9,30.09,SSW,203,0.0,0.4,72,0.00,,,0.00,WUHU216HW,2013-03-23 12:05:00,
2013-03-23 07:06:00,20.5,12.9,30.09,SSW,203,0.0,0.4,72,0.00,,,0.00,WUHU216HW,2013-03-23 12:06:00,
2013-03-23 07:30:00,20.3,13.3,30.09,SSW,203,1.3,1.3,74,0.00,,,0.00,WUHU216HW,2013-03-23 12:30:00,
2013-03-23 07:35:00,20.3,13.3,30.09,SSW,203,1.3,1.3,74,0.00,,,0.00,WUHU216HW,2013-03-23 12:35:00,
2013-03-23 07:36:00,20.3,13.3,30.09,SSW,203,1.3,1.3,74,0.00,,,0.00,WUHU216HW,2013-03-23 12:36:00,
2013-03-23 08:00:00,19.8,13.1,30.10,NW,315,2.2,2.2,75,0.00,,,0.00,WUHU216HW,2013-03-23 13:00:00,
2013-03-23 08:05:00,19.8,13.1,30.10,NW,315,2.2,2.2,75,0.00,,,0.00,WUHU216HW,2013-03-23 13:05:00,
2013-03-23 08:30:00,20.9,13.2,30.09,North,0,4.7,4.7,72,0.00,,,0.00,WUHU216HW,2013-03-23 13:30:00,
2013-03-23 08:35:00,21.1,13.4,30.09,NNE,23,2.7,4.7,72,0.00,,,0.00,WUHU216HW,2013-03-23 13:35:00,
2013-03-23 08:40:00,21.1,13.4,30.09,NNE,23,2.7,2.7,72,0.00,,,0.00,WUHU216HW,2013-03-23 13:40:00,
2013-03-23 09:00:00,23.8,14.3,30.11,NNE,23,1.1,1.1,67,0.00,,,0.00,WUHU216HW,2013-03-23 14:00:00,
2013-03-23 09:05:00,23.9,14.5,30.11,NNE,23,1.1,1.1,67,0.00,,,0.00,WUHU216HW,2013-03-23 14:05:00,
2013-03-23 09:10:00,23.9,14.5,30.11,NNE,23,1.1,1.1,67,0.00,,,0.00,WUHU216HW,2013-03-23 14:10:00,
2013-03-23 09:30:00,26.3,16.4,30.11,NW,315,0.0,0.0,66,0.00,,,0.00,WUHU216HW,2013-03-23 14:30:00,
2013-03-23 09:35:00,26.3,16.4,30.11,NW,315,0.0,0.0,66,0.00,,,0.00,WUHU216HW,2013-03-23 14:35:00,
2013-03-23 09:36:00,26.3,16.4,30.11,NW,315,0.0,0.0,66,0.00,,,0.00,WUHU216HW,2013-03-23 14:36:00,
2013-03-23 09:40:00,26.3,16.4,30.11,NW,315,0.0,0.0,66,0.00,,,0.00,WUHU216HW,2013-03-23 14:40:00,
2013-03-23 10:00:00,30.8,16.0,30.12,NNE,23,0.0,0.0,54,0.00,,,0.00,WUHU216HW,2013-03-23 15:00:00,
2013-03-23 10:05:00,30.8,16.5,30.12,SSE,158,0.9,0.9,55,0.00,,,0.00,WUHU216HW,2013-03-23 15:05:00,
2013-03-23 10:06:00,30.8,16.5,30.12,SSE,158,0.9,0.9,55,0.00,,,0.00,WUHU216HW,2013-03-23 15:06:00,
2013-03-23 10:30:00,31.5,16.3,30.10,NNE,23,3.4,3.4,53,0.00,,,0.00,WUHU216HW,2013-03-23 15:30:00,
2013-03-23 10:35:00,31.5,16.3,30.10,NNE,23,3.4,3.4,53,0.00,,,0.00,WUHU216HW,2013-03-23 15:35:00,
2013-03-23 10:36:00,31.5,16.3,30.10,NNE,23,3.4,3.4,53,0.00,,,0.00,WUHU216HW,2013-03-23 15:36:00,
2013-03-23 11:00:00,37.8,21.2,30.09,ENE,68,1.1,1.1,51,0.00,,,0.00,WUHU216HW,2013-03-23 16:00:00,
2013-03-23 11:05:00,37.8,21.2,30.09,ENE,68,1.1,1.1,51,0.00,,,0.00,WUHU216HW,2013-03-23 16:05:00,
2013-03-23 11:30:00,37.6,18.1,30.11,North,0,1.1,1.1,45,0.00,,,0.00,WUHU216HW,2013-03-23 16:30:00,
2013-03-23 11:35:00,37.6,18.1,30.11,North,0,1.1,1.1,45,0.00,,,0.00,WUHU216HW,2013-03-23 16:35:00,
2013-03-23 12:00:00,42.5,20.9,30.11,SSE,158,4.7,4.7,42,0.00,,,0.00,WUHU216HW,2013-03-23 17:00:00,
2013-03-23 12:05:00,42.5,20.9,30.11,SSE,158,4.7,4.7,42,0.00,,,0.00,WUHU216HW,2013-03-23 17:05:00,
2013-03-23 12:30:00,42.7,21.1,30.11,SSE,158,0.7,0.7,42,0.00,,,0.00,WUHU216HW,2013-03-23 17:30:00,
2013-03-23 12:35:00,42.7,21.1,30.11,SSE,158,0.7,0.7,42,0.00,,,0.00,WUHU216HW,2013-03-23 17:35:00,
2013-03-23 13:00:00,42.8,19.5,30.11,SE,135,2.5,2.5,39,0.00,,,0.00,WUHU216HW,2013-03-23 18:00:00,
2013-03-23 13:05:00,42.8,19.5,30.11,SE,135,2.5,2.5,39,0.00,,,0.00,WUHU216HW,2013-03-23 18:05:00,
2013-03-23 13:30:00,42.8,20.2,30.10,North,0,0.4,0.4,40,0.00,,,0.00,WUHU216HW,2013-03-23 18:30:00,
2013-03-23 13:32:00,43.9,21.7,30.10,SE,135,1.6,1.6,41,0.00,,,0.00,WUHU216HW,2013-03-23 18:32:00,
2013-03-23 13:35:00,43.9,21.7,30.10,SE,135,1.6,1.6,41,0.00,,,0.00,WUHU216HW,2013-03-23 18:35:00,
2013-03-23 13:40:00,43.9,21.7,30.10,SE,135,1.6,1.6,41,0.00,,,0.00,WUHU216HW,2013-03-23 18:40:00,
2013-03-23 13:41:00,43.9,21.7,30.10,SE,135,1.6,1.6,41,0.00,,,0.00,WUHU216HW,2013-03-23 18:41:00,
2013-03-23 14:00:00,43.7,19.6,30.09,NE,45,2.5,2.5,38,0.00,,,0.00,WUHU216HW,2013-03-23 19:00:00,
2013-03-23 14:05:00,43.7,19.6,30.09,SSE,158,1.6,2.5,38,0.00,,,0.00,WUHU216HW,2013-03-23 19:05:00,
2013-03-23 14:10:00,43.7,19.6,30.09,SSE,158,1.6,1.6,38,0.00,,,0.00,WUHU216HW,2013-03-23 19:10:00,
2013-03-23 14:30:00,48.6,23.3,30.08,SE,135,1.8,1.8,37,0.00,,,0.00,WUHU216HW,2013-03-23 19:30:00,
2013-03-23 14:35:00,48.6,23.3,30.08,SSE,158,1.8,1.8,37,0.00,,,0.00,WUHU216HW,2013-03-23 19:35:00,
2013-03-23 15:00:00,44.5,19.0,30.07,North,0,1.6,1.6,36,0.00,,,0.00,WUHU216HW,2013-03-23 20:00:00,
2013-03-23 15:05:00,44.3,18.8,30.07,NNE,23,1.6,1.6,36,0.00,,,0.00,WUHU216HW,2013-03-23 20:05:00,
2013-03-23 15:10:00,44.3,18.8,30.07,NNE,23,1.6,1.6,36,0.00,,,0.00,WUHU216HW,2013-03-23 20:10:00,
2013-03-23 15:30:00,49.3,21.2,30.07,SE,135,1.1,1.1,33,0.00,,,0.00,WUHU216HW,2013-03-23 20:30:00,
2013-03-23 15:35:00,49.3,21.2,30.07,SE,135,3.1,3.1,33,0.00,,,0.00,WUHU216HW,2013-03-23 20:35:00,
2013-03-23 15:36:00,49.3,21.2,30.07,SE,135,3.1,3.1,33,0.00,,,0.00,WUHU216HW,2013-03-23 20:36:00,
2013-03-23 15:40:00,49.3,21.2,30.07,SE,135,3.1,3.1,33,0.00,,,0.00,WUHU216HW,2013-03-23 20:40:00,
2013-03-23 16:00:00,47.9,20.7,30.05,East,90,0.7,0.7,34,0.00,,,0.00,WUHU216HW,2013-03-23 21:00:00,
2013-03-23 16:05:00,48.1,20.9,30.05,East,90,0.9,0.9,34,0.00,,,0.00,WUHU216HW,2013-03-23 21:05:00,
2013-03-23 16:30:00,46.6,20.9,30.06,ENE,68,1.6,1.6,36,0.00,,,0.00,WUHU216HW,2013-03-23 21:30:00,
2013-03-23 16:35:00,46.6,20.9,30.06,ENE,68,0.9,1.6,36,0.00,,,0.00,WUHU216HW,2013-03-23 21:35:00,
2013-03-23 17:00:00,39.6,19.4,30.06,North,0,3.4,3.4,44,0.00,,,0.00,WUHU216HW,2013-03-23 22:00:00,
2013-03-23 17:05:00,39.6,19.9,30.06,North,0,3.4,3.4,45,0.00,,,0.00,WUHU216HW,2013-03-23 22:05:00,
2013-03-23 17:10:00,39.6,19.9,30.06,North,0,3.4,3.4,45,0.00,,,0.00,WUHU216HW,2013-03-23 22:10:00,
2013-03-23 17:30:00,39.6,18.3,30.06,NE,45,0.7,0.7,42,0.00,,,0.00,WUHU216HW,2013-03-23 22:30:00,
2013-03-23 17:35:00,39.6,18.3,30.06,NE,45,0.4,0.7,42,0.00,,,0.00,WUHU216HW,2013-03-23 22:35:00,
2013-03-23 17:36:00,39.6,18.3,30.06,NE,45,0.4,0.7,42,0.00,,,0.00,WUHU216HW,2013-03-23 22:36:00,
2013-03-23 18:00:00,41.0,20.1,30.06,NNE,23,0.7,0.7,43,0.00,,,0.00,WUHU216HW,2013-03-23 23:00:00,
2013-03-23 18:05:00,41.0,20.1,30.06,North,0,0.2,0.7,43,0.00,,,0.00,WUHU216HW,2013-03-23 23:05:00,
2013-03-23 18:10:00,41.0,20.1,30.06,North,0,0.2,0.2,43,0.00,,,0.00,WUHU216HW,2013-03-23 23:10:00,
2013-03-23 18:30:00,38.9,19.2,30.07,SSE,158,2.9,2.9,45,0.00,,,0.00,WUHU216HW,2013-03-23 23:30:00,
2013-03-23 18:35:00,38.9,19.2,30.07,SSE,158,2.9,2.9,45,0.00,,,0.00,WUHU216HW,2013-03-23 23:35:00,
2013-03-23 18:37:00,38.9,19.2,30.07,SSE,158,2.9,2.9,45,0.00,,,0.00,WUHU216HW,2013-03-23 23:37:00,
2013-03-23 19:00:00,38.0,18.4,30.06,SSE,158,0.0,0.0,45,0.00,,,0.00,WUHU216HW,2013-03-24 00:00:00,
2013-03-23 19:05:00,38.0,18.4,30.06,SSE,158,0.0,0.0,45,0.00,,,0.00,WUHU216HW,2013-03-24 00:05:00,
2013-03-23 19:10:00,38.0,18.4,30.06,SSE,158,0.0,0.0,45,0.00,,,0.00,WUHU216HW,2013-03-24 00:10:00,
2013-03-23 19:30:00,36.4,18.0,30.06,SE,135,0.0,0.0,47,0.00,,,0.00,WUHU216HW,2013-03-24 00:30:00,
2013-03-23 19:35:00,36.4,18.0,30.06,SE,135,0.0,0.0,47,0.00,,,0.00,WUHU216HW,2013-03-24 00:35:00,
2013-03-23 19:36:00,36.4,18.0,30.06,SE,135,0.0,0.0,47,0.00,,,0.00,WUHU216HW,2013-03-24 00:36:00,
2013-03-23 20:00:00,35.3,18.0,30.07,NW,315,4.5,4.5,49,0.00,,,0.00,WUHU216HW,2013-03-24 01:00:00,
2013-03-23 20:05:00,35.3,18.0,30.07,NW,315,4.5,4.5,49,0.00,,,0.00,WUHU216HW,2013-03-24 01:05:00,
2013-03-23 20:30:00,34.4,18.6,30.07,WNW,293,5.1,5.1,52,0.00,,,0.00,WUHU216HW,2013-03-24 01:30:00,
2013-03-23 20:35:00,34.4,18.6,30.07,WNW,293,5.1,5.1,52,0.00,,,0.00,WUHU216HW,2013-03-24 01:35:00,
2013-03-23 21:00:00,33.8,18.8,30.08,NW,315,4.0,4.0,54,0.00,,,0.00,WUHU216HW,2013-03-24 02:00:00,
2013-03-23 21:01:00,33.8,18.8,30.08,NW,315,3.4,3.4,54,0.00,,,0.00,WUHU216HW,2013-03-24 02:01:00,
2013-03-23 21:05:00,33.8,18.8,30.08,NW,315,3.4,4.0,54,0.00,,,0.00,WUHU216HW,2013-03-24 02:05:00,
2013-03-23 21:10:00,33.8,18.8,30.08,NW,315,3.4,3.6,54,0.00,,,0.00,WUHU216HW,2013-03-24 02:10:00,
2013-03-23 21:31:00,33.5,18.6,30.07,West,270,2.9,2.9,54,0.00,,,0.00,WUHU216HW,2013-03-24 02:31:00,
2013-03-23 21:32:00,33.5,18.6,30.07,West,270,4.0,4.0,54,0.00,,,0.00,WUHU216HW,2013-03-24 02:32:00,
2013-03-23 21:36:00,33.5,18.6,30.07,West,270,4.0,4.0,54,0.00,,,0.00,WUHU216HW,2013-03-24 02:36:00,
2013-03-23 21:37:00,33.5,18.6,30.07,West,270,4.0,4.0,54,0.00,,,0.00,WUHU216HW,2013-03-24 02:37:00,
2013-03-23 21:38:00,33.5,18.6,30.07,West,270,4.0,4.0,54,0.00,,,0.00,WUHU216HW,2013-03-24 02:38:00,
2013-03-23 21:41:00,33.5,18.6,30.07,West,270,4.0,4.0,54,0.00,,,0.00,WUHU216HW,2013-03-24 02:41:00,
2013-03-23 22:00:00,33.1,18.6,30.07,West,270,2.9,2.9,55,0.00,,,0.00,WUHU216HW,2013-03-24 03:00:00,
2013-03-23 22:05:00,33.1,18.6,30.07,WNW,293,2.0,2.9,55,0.00,,,0.00,WUHU216HW,2013-03-24 03:05:00,
2013-03-23 22:30:00,32.9,18.5,30.08,NW,315,3.1,3.1,55,0.00,,,0.00,WUHU216HW,2013-03-24 03:30:00,
2013-03-23 22:35:00,32.9,18.9,30.08,WNW,293,3.4,3.4,56,0.00,,,0.00,WUHU216HW,2013-03-24 03:35:00,
2013-03-23 23:00:00,32.4,18.8,30.08,WNW,293,3.8,3.8,57,0.00,,,0.00,WUHU216HW,2013-03-24 04:00:00,
2013-03-23 23:05:00,32.4,18.8,30.08,WNW,293,3.8,3.8,57,0.00,,,0.00,WUHU216HW,2013-03-24 04:05:00,
2013-03-23 23:30:00,32.0,19.4,30.07,NNW,338,1.8,1.8,59,0.00,,,0.00,WUHU216HW,2013-03-24 04:30:00,
2013-03-23 23:35:00,32.0,18.9,30.07,NNW,338,1.6,1.8,58,0.00,,,0.00,WUHU216HW,2013-03-24 04:35:00,
2013-03-23 23:40:00,32.0,18.9,30.07,NNW,338,1.6,1.8,58,0.00,,,0.00,WUHU216HW,2013-03-24 04:40:00,